createdAt,value
2018-05-09T00:00:48.728Z,9.13
2018-05-09T00:03:16.135Z,8.60
2018-05-09T00:05:43.560Z,10.45
2018-05-09T00:08:10.972Z,8.13
2018-05-09T00:10:38.385Z,9.18
2018-05-09T00:13:05.788Z,8.65
2018-05-09T00:15:33.207Z,7.65
2018-05-09T00:18:00.604Z,8.13
2018-05-09T00:20:28.035Z,12.45
2018-05-09T00:22:55.432Z,9.25
2018-05-09T00:25:22.852Z,8.85
2018-05-09T00:27:50.273Z,12.27
2018-05-09T00:30:17.684Z,7.93
2018-05-09T00:32:45.089Z,8.52
2018-05-09T00:35:12.506Z,9.35
2018-05-09T00:37:39.910Z,7.32
2018-05-09T00:40:07.325Z,10.07
2018-05-09T00:42:34.742Z,10.77
2018-05-09T00:45:02.164Z,11.55
2018-05-09T00:47:29.576Z,9.90
2018-05-09T00:49:56.992Z,9.38
2018-05-09T00:52:24.393Z,9.18
2018-05-09T00:54:51.809Z,9.82
2018-05-09T00:57:19.222Z,8.73
2018-05-09T00:59:46.679Z,7.18
2018-05-09T01:02:14.087Z,7.53
2018-05-09T01:04:41.492Z,10.48
2018-05-09T01:07:08.908Z,5.78
2018-05-09T01:09:36.321Z,8.60
2018-05-09T01:12:03.736Z,8.82
2018-05-09T01:14:31.144Z,9.63
2018-05-09T01:16:58.565Z,23.65
2018-05-09T01:19:25.969Z,7.03
2018-05-09T01:21:53.388Z,6.50
2018-05-09T01:24:20.796Z,12.70
2018-05-09T01:26:48.215Z,5.60
2018-05-09T01:29:15.625Z,4.95
2018-05-09T01:31:43.039Z,11.60
2018-05-09T01:34:10.445Z,7.15
2018-05-09T01:36:37.860Z,8.68
2018-05-09T01:39:06.165Z,7.70
2018-05-09T01:41:33.576Z,6.78
2018-05-09T01:44:00.983Z,7.45
2018-05-09T01:46:28.400Z,8.23
2018-05-09T01:48:55.802Z,7.45
2018-05-09T01:51:23.212Z,7.78
2018-05-09T01:53:50.622Z,7.05
2018-05-09T01:56:18.032Z,9.10
2018-05-09T01:58:45.439Z,7.18
2018-05-09T02:01:12.860Z,7.20
2018-05-09T02:03:40.264Z,8.73
2018-05-09T02:06:07.739Z,7.57
2018-05-09T02:08:35.082Z,8.30
2018-05-09T02:11:02.505Z,8.88
2018-05-09T02:13:29.908Z,8.30
2018-05-09T02:15:57.384Z,7.55
2018-05-09T02:18:24.788Z,8.90
2018-05-09T02:20:52.203Z,6.57
2018-05-09T02:23:19.604Z,6.30
2018-05-09T02:25:47.020Z,6.00
2018-05-09T02:28:14.421Z,6.70
2018-05-09T02:30:41.842Z,6.37
2018-05-09T02:33:09.256Z,7.10
2018-05-09T02:35:36.656Z,6.05
2018-05-09T02:38:04.065Z,6.97
2018-05-09T02:40:31.472Z,6.70
2018-05-09T02:42:58.891Z,8.23
2018-05-09T02:45:26.296Z,8.40
2018-05-09T02:47:53.712Z,9.25
2018-05-09T02:50:21.113Z,6.62
2018-05-09T02:52:48.529Z,5.75
2018-05-09T02:55:15.936Z,5.53
2018-05-09T02:57:43.348Z,9.63
2018-05-09T03:00:10.761Z,5.45
2018-05-09T03:02:38.173Z,6.80
2018-05-09T03:05:05.585Z,6.50
2018-05-09T03:07:32.997Z,6.12
2018-05-09T03:10:00.409Z,7.93
2018-05-09T03:12:27.811Z,5.18
2018-05-09T03:14:55.214Z,4.62
2018-05-09T03:17:22.628Z,4.90
2018-05-09T03:19:50.041Z,4.62
2018-05-09T03:22:17.453Z,4.90
2018-05-09T03:24:44.861Z,3.55
2018-05-09T03:27:12.275Z,4.37
2018-05-09T03:29:39.770Z,7.07
2018-05-09T03:32:07.093Z,4.37
2018-05-09T03:34:34.504Z,4.78
2018-05-09T03:37:01.905Z,7.90
2018-05-09T03:39:29.312Z,4.25
2018-05-09T03:41:56.715Z,5.80
2018-05-09T03:44:24.136Z,4.68
2018-05-09T03:46:51.540Z,5.45
2018-05-09T03:49:18.952Z,4.43
2018-05-09T03:51:46.369Z,4.82
2018-05-09T03:54:13.788Z,5.75
2018-05-09T03:56:41.187Z,7.57
2018-05-09T03:59:08.632Z,13.23
2018-05-09T04:04:47.468Z,5.25
2018-05-09T04:07:26.682Z,4.80
2018-05-09T04:09:54.815Z,5.20
2018-05-09T04:12:22.226Z,5.03
2018-05-09T04:14:49.711Z,5.87
2018-05-09T04:17:17.086Z,4.62
2018-05-09T04:19:44.508Z,5.20
2018-05-09T04:22:11.919Z,5.47
2018-05-09T04:24:39.325Z,4.85
2018-05-09T04:27:06.747Z,5.10
2018-05-09T04:29:34.214Z,8.50
2018-05-09T04:32:01.569Z,15.27
2018-05-09T04:34:28.973Z,5.90
2018-05-09T04:36:56.384Z,4.25
2018-05-09T04:39:23.797Z,6.95
2018-05-09T04:41:51.246Z,3.35
2018-05-09T04:44:18.625Z,4.90
2018-05-09T04:46:46.045Z,5.20
2018-05-09T04:49:13.544Z,6.53
2018-05-09T04:51:40.867Z,6.07
2018-05-09T04:54:08.269Z,3.45
2018-05-09T04:56:35.683Z,5.78
2018-05-09T04:59:03.089Z,7.55
2018-05-09T05:01:30.505Z,6.32
2018-05-09T05:03:57.916Z,6.62
2018-05-09T05:06:25.325Z,6.18
2018-05-09T05:08:52.728Z,5.53
2018-05-09T05:11:20.149Z,5.32
2018-05-09T05:13:47.556Z,9.10
2018-05-09T05:16:14.961Z,7.05
2018-05-09T05:18:42.381Z,6.50
2018-05-09T05:21:09.789Z,6.87
2018-05-09T05:23:37.205Z,6.35
2018-05-09T05:26:04.611Z,8.20
2018-05-09T05:28:32.029Z,6.95
2018-05-09T05:30:59.440Z,15.23
2018-05-09T05:33:26.857Z,8.52
2018-05-09T05:35:54.269Z,7.68
2018-05-09T05:38:21.672Z,7.45
2018-05-09T05:40:49.084Z,8.75
2018-05-09T05:43:16.497Z,8.38
2018-05-09T05:45:43.900Z,10.15
2018-05-09T05:48:11.321Z,7.75
2018-05-09T05:50:38.728Z,7.85
2018-05-09T05:53:06.144Z,13.48
2018-05-09T05:55:33.549Z,9.55
2018-05-09T05:58:00.964Z,11.98
2018-05-09T06:00:28.377Z,7.93
2018-05-09T06:02:55.793Z,7.43
2018-05-09T06:05:23.199Z,8.38
2018-05-09T06:07:50.637Z,10.63
2018-05-09T06:10:18.069Z,14.15
2018-05-09T06:12:45.501Z,14.18
2018-05-09T06:15:12.904Z,10.13
2018-05-09T06:17:40.316Z,10.30
2018-05-09T06:20:07.732Z,11.68
2018-05-09T06:22:35.150Z,13.30
2018-05-09T06:25:02.574Z,15.45
2018-05-09T06:27:29.985Z,15.60
2018-05-09T06:29:57.402Z,13.52
2018-05-09T06:32:24.813Z,14.93
2018-05-09T06:34:52.234Z,16.23
2018-05-09T06:37:19.636Z,9.60
2018-05-09T06:39:47.064Z,9.07
2018-05-09T06:42:14.477Z,21.20
2018-05-09T06:44:41.900Z,20.85
2018-05-09T06:47:09.317Z,14.00
2018-05-09T06:49:36.733Z,14.48
2018-05-09T06:52:04.150Z,9.93
2018-05-09T06:54:31.573Z,13.35
2018-05-09T06:56:58.984Z,14.50
2018-05-09T06:59:26.404Z,14.77
2018-05-09T07:01:53.825Z,16.45
2018-05-09T07:04:21.243Z,15.80
2018-05-09T07:06:48.754Z,14.73
2018-05-09T07:09:16.092Z,13.80
2018-05-09T07:11:43.510Z,14.05
2018-05-09T07:14:10.935Z,15.80
2018-05-09T07:16:38.339Z,29.12
2018-05-09T07:19:05.765Z,20.37
2018-05-09T07:21:33.185Z,21.12
2018-05-09T07:24:00.611Z,15.77
2018-05-09T07:26:28.030Z,22.20
2018-05-09T07:28:55.460Z,19.42
2018-05-09T07:31:22.873Z,24.80
2018-05-09T07:33:50.302Z,28.55
2018-05-09T07:36:17.713Z,31.67
2018-05-09T07:38:45.133Z,26.25
2018-05-09T07:41:12.555Z,23.52
2018-05-09T07:43:39.981Z,23.67
2018-05-09T07:46:07.400Z,20.52
2018-05-09T07:48:34.819Z,19.12
2018-05-09T07:51:02.239Z,27.02
2018-05-09T07:53:29.652Z,23.10
2018-05-09T07:55:57.076Z,27.40
2018-05-09T07:58:24.493Z,35.78
2018-05-09T08:00:51.921Z,31.15
2018-05-09T08:03:19.341Z,27.65
2018-05-09T08:05:46.772Z,34.42
2018-05-09T08:08:14.184Z,32.60
2018-05-09T08:10:41.614Z,23.75
2018-05-09T08:13:09.024Z,28.48
2018-05-09T08:15:36.452Z,34.78
2018-05-09T08:18:03.867Z,38.75
2018-05-09T08:20:31.292Z,50.63
2018-05-09T08:22:58.700Z,33.25
2018-05-09T08:25:26.120Z,51.88
2018-05-09T08:27:53.540Z,42.67
2018-05-09T08:30:21.062Z,50.15
2018-05-09T08:32:48.393Z,43.38
2018-05-09T08:35:15.818Z,51.83
2018-05-09T08:37:43.232Z,45.30
2018-05-09T08:40:10.672Z,49.88
2018-05-09T08:42:38.085Z,34.30
2018-05-09T08:45:05.507Z,45.53
2018-05-09T08:47:32.919Z,48.35
2018-05-09T08:50:00.345Z,33.60
2018-05-09T08:52:27.755Z,41.22
2018-05-09T08:54:55.190Z,36.65
2018-05-09T08:57:22.601Z,44.13
2018-05-09T08:59:50.016Z,52.47
2018-05-09T09:02:17.428Z,43.20
2018-05-09T09:04:44.853Z,41.78
2018-05-09T09:07:12.268Z,49.40
2018-05-09T09:09:39.692Z,61.50
2018-05-09T09:12:07.109Z,53.75
2018-05-09T09:14:34.531Z,44.83
2018-05-09T09:17:01.936Z,50.95
2018-05-09T09:19:29.362Z,56.40
2018-05-09T09:21:56.769Z,45.22
2018-05-09T09:24:24.192Z,38.33
2018-05-09T09:26:51.601Z,54.92
2018-05-09T09:29:19.123Z,48.42
2018-05-09T09:31:46.433Z,51.03
2018-05-09T09:34:13.844Z,60.17
2018-05-09T09:36:41.264Z,46.97
2018-05-09T09:39:08.682Z,74.50
2018-05-09T09:41:36.104Z,63.22
2018-05-09T09:44:03.516Z,68.07
2018-05-09T09:46:30.940Z,87.93
2018-05-09T09:48:58.368Z,109.68
2018-05-09T09:51:25.796Z,93.95
2018-05-09T09:53:53.218Z,110.37
2018-05-09T09:56:20.641Z,91.90
2018-05-09T09:58:48.077Z,77.55
2018-05-09T10:01:15.495Z,83.55
2018-05-09T10:03:42.913Z,93.90
2018-05-09T10:06:10.335Z,94.45
2018-05-09T10:08:37.757Z,95.60
2018-05-09T10:11:05.179Z,95.80
2018-05-09T10:13:32.601Z,78.40
2018-05-09T10:16:00.070Z,88.50
2018-05-09T10:18:27.440Z,97.25
2018-05-09T10:20:54.871Z,75.32
2018-05-09T10:23:22.360Z,68.22
2018-05-09T10:25:49.716Z,64.72
2018-05-09T10:28:17.125Z,65.35
2018-05-09T10:30:44.552Z,56.20
2018-05-09T10:33:11.969Z,84.07
2018-05-09T10:35:39.396Z,86.50
2018-05-09T10:38:06.827Z,77.22
2018-05-09T10:40:34.257Z,92.40
2018-05-09T10:43:01.685Z,108.75
2018-05-09T10:45:29.132Z,105.70
2018-05-09T10:47:56.560Z,121.28
2018-05-09T10:50:23.994Z,58.65
2018-05-09T10:52:51.411Z,91.15
2018-05-09T10:55:18.849Z,134.35
2018-05-09T10:57:46.278Z,101.57
2018-05-09T11:00:13.713Z,104.82
2018-05-09T11:02:41.168Z,124.05
2018-05-09T11:05:08.677Z,138.62
2018-05-09T11:07:36.024Z,121.30
2018-05-09T11:10:03.445Z,102.22
2018-05-09T11:12:30.883Z,102.32
2018-05-09T11:14:58.306Z,97.85
2018-05-09T11:17:25.745Z,136.82
2018-05-09T11:19:53.168Z,100.72
2018-05-09T11:22:20.617Z,126.75
2018-05-09T11:24:48.044Z,104.07
2018-05-09T11:27:15.504Z,114.85
2018-05-09T11:29:42.928Z,129.20
2018-05-09T11:32:10.373Z,133.93
2018-05-09T11:34:37.792Z,118.30
2018-05-09T11:37:05.232Z,149.02
2018-05-09T11:39:32.660Z,92.20
2018-05-09T11:42:00.093Z,99.60
2018-05-09T11:44:27.525Z,111.93
2018-05-09T11:46:54.951Z,114.30
2018-05-09T11:49:22.372Z,124.83
2018-05-09T11:51:49.805Z,94.57
2018-05-09T11:54:17.224Z,120.63
2018-05-09T11:56:44.681Z,139.87
2018-05-09T11:59:12.104Z,153.93
2018-05-09T12:01:39.539Z,144.70
2018-05-09T12:04:06.957Z,134.27
2018-05-09T12:06:34.388Z,119.53
2018-05-09T12:09:01.797Z,89.73
2018-05-09T12:11:29.229Z,107.10
2018-05-09T12:13:56.644Z,91.93
2018-05-09T12:16:24.092Z,106.73
2018-05-09T12:18:51.525Z,156.57
2018-05-09T12:21:18.956Z,123.40
2018-05-09T12:23:46.372Z,112.37
2018-05-09T12:26:13.798Z,103.30
2018-05-09T12:28:41.217Z,111.90
2018-05-09T12:31:08.649Z,128.37
2018-05-09T12:33:36.073Z,143.47
2018-05-09T12:36:03.529Z,95.77
2018-05-09T12:38:30.949Z,113.90
2018-05-09T12:40:58.376Z,96.70
2018-05-09T12:43:25.800Z,124.03
2018-05-09T12:45:53.224Z,126.47
2018-05-09T12:48:20.649Z,119.90
2018-05-09T12:50:48.073Z,112.63
2018-05-09T12:53:15.500Z,115.47
2018-05-09T12:55:42.916Z,102.83
2018-05-09T12:58:10.333Z,87.73
2018-05-09T13:00:37.753Z,103.73
2018-05-09T13:03:05.189Z,120.43
2018-05-09T13:05:32.612Z,114.47
2018-05-09T13:08:00.044Z,120.60
2018-05-09T13:10:27.472Z,117.63
2018-05-09T13:12:54.900Z,100.20
2018-05-09T13:15:22.311Z,82.90
2018-05-09T13:17:49.749Z,157.30
2018-05-09T13:20:17.168Z,132.37
2018-05-09T13:22:44.593Z,105.73
2018-05-09T13:25:12.011Z,126.07
2018-05-09T13:27:39.449Z,125.87
2018-05-09T13:30:06.873Z,113.60
2018-05-09T13:32:34.306Z,106.73
2018-05-09T13:35:01.741Z,129.67
2018-05-09T13:37:29.178Z,141.40
2018-05-09T13:39:56.649Z,199.10
2018-05-09T13:42:24.024Z,137.30
2018-05-09T13:44:51.436Z,98.87
2018-05-09T13:47:18.873Z,127.90
2018-05-09T13:49:46.289Z,119.63
2018-05-09T13:52:13.717Z,124.93
2018-05-09T13:54:41.137Z,138.40
2018-05-09T13:57:08.564Z,135.47
2018-05-09T13:59:35.984Z,115.30
2018-05-09T14:02:03.413Z,119.77
2018-05-09T14:04:31.002Z,127.27
2018-05-09T14:06:58.459Z,115.03
2018-05-09T14:09:25.884Z,119.20
2018-05-09T14:11:53.313Z,109.13
2018-05-09T14:14:20.740Z,117.17
2018-05-09T14:16:48.184Z,78.40
2018-05-09T14:19:15.608Z,100.83
2018-05-09T14:21:43.024Z,124.03
2018-05-09T14:24:10.457Z,131.90
2018-05-09T14:26:37.879Z,114.13
2018-05-09T14:29:05.308Z,130.43
2018-05-09T14:31:32.733Z,129.47
2018-05-09T14:34:00.156Z,122.77
2018-05-09T14:36:27.583Z,117.40
2018-05-09T14:38:55.037Z,119.23
2018-05-09T14:41:22.462Z,152.77
2018-05-09T14:43:49.900Z,121.30
2018-05-09T14:46:17.324Z,121.83
2018-05-09T14:48:44.757Z,147.27
2018-05-09T14:51:12.196Z,142.62
2018-05-09T14:53:39.638Z,133.40
2018-05-09T14:56:07.074Z,133.80
2018-05-09T14:58:38.341Z,90.55
2018-05-09T15:01:05.751Z,98.40
2018-05-09T15:03:33.199Z,114.32
2018-05-09T15:06:00.626Z,116.25
2018-05-09T15:08:28.056Z,98.37
2018-05-09T15:10:55.473Z,95.75
2018-05-09T15:13:22.909Z,92.93
2018-05-09T15:15:50.321Z,100.43
2018-05-09T15:18:17.778Z,90.43
2018-05-09T15:20:45.193Z,98.50
2018-05-09T15:23:12.638Z,107.60
2018-05-09T15:25:40.065Z,131.77
2018-05-09T15:28:07.497Z,115.25
2018-05-09T15:30:34.922Z,106.22
2018-05-09T15:33:02.356Z,78.03
2018-05-09T15:35:29.772Z,132.10
2018-05-09T15:37:57.201Z,120.18
2018-05-09T15:40:24.622Z,100.68
2018-05-09T15:45:25.917Z,143.68
2018-05-09T15:47:53.344Z,76.40
2018-05-09T15:50:20.834Z,115.75
2018-05-09T15:52:48.196Z,109.87
2018-05-09T15:55:15.618Z,93.68
2018-05-09T15:57:43.079Z,97.68
2018-05-09T16:00:10.446Z,99.55
2018-05-09T16:02:37.860Z,81.78
2018-05-09T16:05:05.280Z,89.72
2018-05-09T16:07:32.716Z,54.38
2018-05-09T16:10:00.146Z,58.95
2018-05-09T16:12:27.555Z,74.72
2018-05-09T16:14:54.977Z,78.60
2018-05-09T16:17:22.388Z,62.97
2018-05-09T16:19:49.820Z,67.60
2018-05-09T16:22:17.288Z,61.78
2018-05-09T16:24:44.693Z,68.05
2018-05-09T16:27:12.112Z,62.17
2018-05-09T16:29:39.541Z,66.10
2018-05-09T16:32:06.956Z,69.03
2018-05-09T16:34:34.377Z,53.67
2018-05-09T16:37:01.797Z,67.50
2018-05-09T16:39:29.216Z,52.80
2018-05-09T16:41:56.636Z,72.87
2018-05-09T16:44:24.056Z,66.32
2018-05-09T16:46:51.590Z,67.85
2018-05-09T16:49:19.031Z,71.55
2018-05-09T16:51:46.465Z,85.57
2018-05-09T16:54:13.893Z,93.10
2018-05-09T16:56:41.312Z,82.45
2018-05-09T16:59:08.735Z,103.30
2018-05-09T17:01:36.212Z,70.68
2018-05-09T17:04:03.580Z,96.47
2018-05-09T17:06:31.016Z,70.25
2018-05-09T17:08:58.444Z,67.37
2018-05-09T17:11:25.865Z,74.15
2018-05-09T17:13:53.279Z,49.80
2018-05-09T17:16:20.696Z,84.45
2018-05-09T17:18:48.124Z,99.82
2018-05-09T17:21:33.168Z,121.97
2018-05-09T17:24:00.585Z,80.68
2018-05-09T17:26:28.001Z,55.00
2018-05-09T17:28:55.432Z,40.50
2018-05-09T17:31:22.849Z,54.40
2018-05-09T17:33:50.267Z,68.65
2018-05-09T17:36:17.682Z,72.93
2018-05-09T17:38:45.112Z,81.53
2018-05-09T17:41:12.528Z,91.30
2018-05-09T17:43:39.955Z,100.60
2018-05-09T17:46:07.383Z,74.47
2018-05-09T17:48:34.793Z,78.60
2018-05-09T17:51:02.225Z,71.22
2018-05-09T17:53:29.646Z,72.37
2018-05-09T17:55:57.069Z,85.28
2018-05-09T17:58:24.492Z,84.72
2018-05-09T18:00:51.918Z,63.97
2018-05-09T18:03:19.332Z,65.53
2018-05-09T18:05:46.752Z,62.65
2018-05-09T18:08:14.176Z,72.87
2018-05-09T18:10:41.604Z,65.80
2018-05-09T18:13:09.008Z,52.38
2018-05-09T18:15:36.436Z,52.50
2018-05-09T18:18:03.920Z,56.85
2018-05-09T18:20:31.345Z,49.53
2018-05-09T18:22:58.761Z,58.33
2018-05-09T18:25:26.196Z,51.53
2018-05-09T18:27:53.616Z,60.55
2018-05-09T18:30:21.033Z,54.00
2018-05-09T18:32:48.448Z,65.15
2018-05-09T18:35:15.877Z,46.60
2018-05-09T18:37:43.289Z,56.37
2018-05-09T18:40:10.738Z,62.72
2018-05-09T18:42:38.147Z,50.25
2018-05-09T18:45:05.573Z,51.25
2018-05-09T18:47:32.988Z,39.13
2018-05-09T18:50:00.416Z,47.95
2018-05-09T18:52:27.828Z,68.65
2018-05-09T18:54:55.256Z,51.40
2018-05-09T18:57:22.681Z,42.50
2018-05-09T18:59:50.192Z,38.63
2018-05-09T19:02:17.534Z,50.55
2018-05-09T19:04:44.964Z,50.75
2018-05-09T19:07:12.364Z,32.83
2018-05-09T19:09:39.789Z,41.40
2018-05-09T19:12:07.204Z,35.60
2018-05-09T19:14:34.631Z,34.00
2018-05-09T19:17:02.049Z,33.92
2018-05-09T19:19:29.477Z,30.25
2018-05-09T19:21:56.892Z,38.45
2018-05-09T19:24:24.311Z,31.12
2018-05-09T19:26:51.733Z,32.97
2018-05-09T19:29:19.139Z,45.45
2018-05-09T19:31:46.569Z,32.50
2018-05-09T19:34:13.992Z,26.48
2018-05-09T19:36:41.408Z,32.05
2018-05-09T19:39:08.829Z,35.08
2018-05-09T19:41:36.329Z,40.58
2018-05-09T19:44:03.667Z,32.85
2018-05-09T19:46:31.089Z,31.40
2018-05-09T19:48:58.501Z,35.50
2018-05-09T19:51:25.921Z,24.75
2018-05-09T19:53:53.339Z,19.45
2018-05-09T19:56:20.765Z,28.50
2018-05-09T19:58:48.184Z,31.02
2018-05-09T20:01:15.609Z,29.67
2018-05-09T20:03:43.026Z,32.17
2018-05-09T20:06:10.445Z,31.50
2018-05-09T20:08:37.961Z,23.20
2018-05-09T20:11:05.312Z,31.33
2018-05-09T20:13:32.729Z,25.88
2018-05-09T20:16:00.161Z,23.30
2018-05-09T20:18:27.605Z,25.10
2018-05-09T20:20:55.049Z,28.23
2018-05-09T20:23:22.464Z,28.67
2018-05-09T20:25:49.891Z,29.75
2018-05-09T20:28:17.312Z,26.73
2018-05-09T20:30:50.320Z,21.60
2018-05-09T20:33:17.720Z,19.48
2018-05-09T20:35:45.144Z,19.55
2018-05-09T20:38:12.561Z,21.75
2018-05-09T20:40:39.992Z,25.20
2018-05-09T20:43:07.404Z,17.40
2018-05-09T20:45:34.835Z,20.75
2018-05-09T20:48:02.253Z,21.35
2018-05-09T20:50:29.671Z,18.98
2018-05-09T20:52:57.088Z,15.45
2018-05-09T20:55:29.345Z,16.15
2018-05-09T20:57:56.760Z,19.75
2018-05-09T21:00:24.172Z,18.48
2018-05-09T21:02:51.595Z,18.23
2018-05-09T21:05:19.017Z,23.23
2018-05-09T21:07:58.191Z,26.37
2018-05-09T21:10:25.606Z,33.05
2018-05-09T21:12:53.030Z,27.85
2018-05-09T21:15:20.443Z,26.87
2018-05-09T21:17:47.864Z,20.17
2018-05-09T21:20:15.347Z,25.33
2018-05-09T21:22:42.716Z,19.62
2018-05-09T21:25:10.144Z,18.60
2018-05-09T21:27:37.646Z,28.25
2018-05-09T21:30:04.997Z,24.70
2018-05-09T21:32:32.420Z,26.25
2018-05-09T21:34:59.841Z,25.23
2018-05-09T21:37:27.260Z,21.90
2018-05-09T21:39:54.685Z,18.75
2018-05-09T21:42:22.109Z,15.52
2018-05-09T21:44:49.528Z,15.57
2018-05-09T21:47:16.944Z,17.08
2018-05-09T21:49:44.408Z,17.35
2018-05-09T21:52:11.778Z,22.35
2018-05-09T21:54:39.193Z,19.02
2018-05-09T21:57:06.619Z,15.48
2018-05-09T21:59:34.049Z,16.00
2018-05-09T22:02:01.474Z,16.67
2018-05-09T22:04:28.892Z,19.12
2018-05-09T22:06:56.320Z,15.48
2018-05-09T22:09:23.760Z,15.15
2018-05-09T22:11:51.181Z,28.42
2018-05-09T22:14:18.596Z,12.02
2018-05-09T22:16:46.025Z,15.73
2018-05-09T22:19:13.440Z,17.65
2018-05-09T22:21:40.870Z,17.92
2018-05-09T22:24:08.292Z,21.65
2018-05-09T22:26:35.705Z,14.07
2018-05-09T22:29:03.129Z,14.93
2018-05-09T22:31:30.542Z,12.30
2018-05-09T22:33:57.960Z,14.52
2018-05-09T22:36:25.377Z,14.87
2018-05-09T22:38:52.805Z,16.87
2018-05-09T22:41:20.208Z,15.20
2018-05-09T22:43:47.644Z,18.65
2018-05-09T22:46:15.049Z,13.93
2018-05-09T22:48:42.478Z,12.13
2018-05-09T22:51:09.889Z,15.38
2018-05-09T22:53:37.312Z,14.20
2018-05-09T22:56:04.726Z,18.87
2018-05-09T22:58:32.184Z,15.70
2018-05-09T23:00:59.608Z,18.58
2018-05-09T23:03:27.034Z,13.00
2018-05-09T23:05:54.446Z,15.85
2018-05-09T23:08:21.877Z,13.32
2018-05-09T23:10:49.292Z,11.50
2018-05-09T23:13:16.716Z,18.62
2018-05-09T23:15:44.133Z,20.55
2018-05-09T23:18:11.558Z,16.85
2018-05-09T23:20:38.963Z,14.70
2018-05-09T23:23:06.377Z,18.15
2018-05-09T23:25:33.797Z,19.85
2018-05-09T23:28:01.216Z,15.40
2018-05-09T23:30:28.641Z,16.80
2018-05-09T23:32:56.048Z,15.70
2018-05-09T23:35:23.476Z,20.52
2018-05-09T23:37:50.894Z,18.37
2018-05-09T23:40:18.311Z,17.77
2018-05-09T23:42:45.730Z,17.40
2018-05-09T23:45:13.156Z,14.55
2018-05-09T23:47:40.584Z,13.60
2018-05-09T23:50:08.009Z,12.48
2018-05-09T23:52:35.425Z,12.48
2018-05-09T23:55:02.853Z,10.90
2018-05-09T23:57:30.265Z,11.20
2018-05-09T23:59:57.688Z,11.30
